Berlin Township, New Jersey
Current Conditions -  °F | °C
As of 6:54 PM on Friday 24 Oct 2014 (Local Time) from KVAY Reporting Station
Clear Clear  
Wind Chill: 60°   Ceiling: Unl
Heat Index: 60°   Visibility: 10mi
Dew Point: 46°   Wind: 0mph
Humidity: 60%   Direction: NA
Pressure: 29.82"   Gusts: NA
Location:  39.8119°N, 74.9426°W
Report Text: KVAY 242254Z AUTO 00000KT 10SM CLR 16/08 A2982 RMK AO2 SLP098 T01560078
Loading
Personal Weather Stations






























Interactive Weather Map
Tropical Storm Tracking
New forecast layout! Learn more

10-Day Weather Forecast

Advertisements
Track Severe Weather on mobile